createdAt,value
2022-09-04T00:00:06.943Z,8.27
2022-09-04T00:03:02.828Z,8.43
2022-09-04T00:05:37.753Z,5.90
2022-09-04T00:08:12.255Z,12.20
2022-09-04T00:11:07.772Z,5.97
2022-09-04T00:13:58.269Z,5.90
2022-09-04T00:16:33.709Z,6.17
2022-09-04T00:19:18.656Z,7.83
2022-09-04T00:22:25.398Z,8.50
2022-09-04T00:25:25.197Z,9.70
2022-09-04T00:28:00.953Z,5.90
2022-09-04T00:30:28.056Z,7.60
2022-09-04T00:33:01.624Z,5.30
2022-09-04T00:35:36.802Z,6.17
2022-09-04T00:38:32.140Z,5.20
2022-09-04T00:41:13.299Z,6.87
2022-09-04T00:43:45.384Z,5.60
2022-09-04T00:46:26.853Z,4.70
2022-09-04T00:49:17.824Z,8.33
2022-09-04T00:51:50.120Z,4.63
2022-09-04T00:54:16.432Z,4.83
2022-09-04T00:57:24.024Z,6.87
2022-09-04T01:00:09.015Z,5.23
2022-09-04T01:03:09.691Z,6.40
2022-09-04T01:05:39.428Z,5.80
2022-09-04T01:08:42.973Z,7.30
2022-09-04T01:11:29.573Z,10.27
2022-09-04T01:14:14.514Z,4.73
2022-09-04T01:16:57.403Z,5.90
2022-09-04T01:19:30.039Z,4.13
2022-09-04T01:22:26.268Z,6.50
2022-09-04T01:25:05.698Z,5.70
2022-09-04T01:27:55.189Z,5.33
2022-09-04T01:30:21.724Z,6.13
2022-09-04T01:33:19.243Z,7.20
2022-09-04T01:36:04.443Z,6.57
2022-09-04T01:38:55.584Z,4.23
2022-09-04T01:41:38.172Z,6.17
2022-09-04T01:44:10.216Z,5.50
2022-09-04T01:46:55.539Z,5.27
2022-09-04T01:49:38.372Z,5.20
2022-09-04T01:52:45.216Z,5.47
2022-09-04T01:55:30.186Z,6.97
2022-09-04T01:58:27.595Z,6.27
2022-09-04T02:01:31.263Z,7.43
2022-09-04T02:04:04.137Z,6.13
2022-09-04T02:06:48.480Z,5.40
2022-09-04T02:09:41.867Z,9.40
2022-09-04T02:12:27.365Z,4.80
2022-09-04T02:15:12.833Z,4.63
2022-09-04T02:18:02.792Z,5.57
2022-09-04T02:20:31.260Z,7.53
2022-09-04T02:23:21.452Z,5.60
2022-09-04T02:26:05.496Z,5.67
2022-09-04T02:28:57.766Z,8.63
2022-09-04T02:31:35.150Z,7.70
2022-09-04T02:34:09.779Z,6.80
2022-09-04T02:36:50.319Z,8.63
2022-09-04T02:39:42.877Z,8.13
2022-09-04T02:42:27.788Z,7.70
2022-09-04T02:44:57.206Z,5.83
2022-09-04T02:47:45.920Z,5.87
2022-09-04T02:50:34.136Z,6.47
2022-09-04T02:53:26.760Z,7.90
2022-09-04T02:56:27.628Z,8.17
2022-09-04T02:59:21.985Z,7.37
2022-09-04T03:02:01.413Z,7.40
2022-09-04T03:04:33.650Z,7.47
2022-09-04T03:07:13.477Z,8.37
2022-09-04T03:09:48.219Z,6.87
2022-09-04T03:12:33.127Z,8.83
2022-09-04T03:15:07.633Z,7.40
2022-09-04T03:17:45.825Z,6.10
2022-09-04T03:20:20.814Z,8.97
2022-09-04T03:22:59.417Z,6.67
2022-09-04T03:25:44.604Z,6.37
2022-09-04T03:28:19.190Z,8.30
2022-09-04T03:30:47.509Z,7.63
2022-09-04T03:33:24.642Z,12.30
2022-09-04T03:36:00.529Z,9.27
2022-09-04T03:39:04.951Z,9.13
2022-09-04T03:41:50.027Z,8.70
2022-09-04T03:44:39.699Z,8.70
2022-09-04T03:47:30.253Z,10.03
2022-09-04T03:50:14.889Z,7.00
2022-09-04T03:53:00.852Z,7.77
2022-09-04T03:55:56.243Z,7.37
2022-09-04T03:58:41.577Z,8.70
2022-09-04T04:01:36.649Z,7.43
2022-09-04T04:04:36.086Z,8.90
2022-09-04T04:07:13.145Z,7.30
2022-09-04T04:10:00.335Z,6.13
2022-09-04T04:12:52.813Z,7.30
2022-09-04T04:15:44.273Z,9.03
2022-09-04T04:18:48.495Z,6.73
2022-09-04T04:21:21.144Z,10.63
2022-09-04T04:23:56.547Z,6.20
2022-09-04T04:26:29.132Z,7.60
2022-09-04T04:29:08.576Z,7.00
2022-09-04T04:31:37.754Z,7.83
2022-09-04T04:34:19.729Z,7.50
2022-09-04T04:36:56.301Z,8.10
2022-09-04T04:39:52.763Z,7.73
2022-09-04T04:42:32.729Z,7.20
2022-09-04T04:45:34.894Z,9.47
2022-09-04T04:48:39.121Z,7.50
2022-09-04T04:51:41.258Z,7.90
2022-09-04T04:54:18.185Z,6.40
2022-09-04T04:57:02.563Z,7.03
2022-09-04T05:00:11.424Z,6.30
2022-09-04T05:02:45.648Z,7.03
2022-09-04T05:05:22.315Z,8.60
2022-09-04T05:08:15.987Z,6.70
2022-09-04T05:11:21.778Z,7.10
2022-09-04T05:14:04.703Z,6.50
2022-09-04T05:16:57.705Z,9.00
2022-09-04T05:19:37.674Z,9.70
2022-09-04T05:22:16.319Z,6.70
2022-09-04T05:24:58.927Z,7.37
2022-09-04T05:27:47.045Z,6.33
2022-09-04T05:30:42.215Z,6.73
2022-09-04T05:33:23.616Z,9.33
2022-09-04T05:36:14.045Z,8.03
2022-09-04T05:39:24.035Z,9.50
2022-09-04T05:42:06.764Z,8.90
2022-09-04T05:45:09.735Z,6.60
2022-09-04T05:47:58.391Z,7.90
2022-09-04T05:50:45.403Z,10.40
2022-09-04T05:53:31.139Z,10.23
2022-09-04T05:56:16.071Z,7.57
2022-09-04T05:59:07.295Z,8.87
2022-09-04T06:02:12.116Z,6.10
2022-09-04T06:05:00.000Z,7.20
2022-09-04T06:07:31.680Z,9.07
2022-09-04T06:10:14.132Z,7.57
2022-09-04T06:13:22.154Z,7.00
2022-09-04T06:16:32.597Z,7.67
2022-09-04T06:19:17.786Z,8.43
2022-09-04T06:21:44.119Z,6.67
2022-09-04T06:24:35.992Z,7.93
2022-09-04T06:27:17.563Z,7.10
2022-09-04T06:30:07.141Z,7.90
2022-09-04T06:33:10.772Z,9.73
2022-09-04T06:35:42.967Z,12.00
2022-09-04T06:38:15.812Z,11.43
2022-09-04T06:40:52.068Z,18.63
2022-09-04T06:44:09.309Z,17.30
2022-09-04T06:46:42.719Z,20.57
2022-09-04T06:49:24.207Z,22.53
2022-09-04T06:52:08.752Z,18.60
2022-09-04T06:54:54.072Z,17.00
2022-09-04T06:57:57.316Z,16.67
2022-09-04T07:00:25.322Z,15.63
2022-09-04T07:03:10.574Z,16.07
2022-09-04T07:05:55.704Z,14.37
2022-09-04T07:08:44.305Z,13.57
2022-09-04T07:11:32.333Z,14.73
2022-09-04T07:14:43.224Z,15.70
2022-09-04T07:17:31.288Z,15.10
2022-09-04T07:20:26.876Z,13.10
2022-09-04T07:23:19.189Z,12.50
2022-09-04T07:26:12.783Z,12.10
2022-09-04T07:28:59.990Z,12.77
2022-09-04T07:31:38.780Z,13.47
2022-09-04T07:34:08.172Z,13.83
2022-09-04T07:36:57.616Z,13.40
2022-09-04T07:39:37.829Z,12.63
2022-09-04T07:42:14.638Z,13.20
2022-09-04T07:44:47.164Z,12.90
2022-09-04T07:47:30.013Z,12.90
2022-09-04T07:50:18.185Z,13.33
2022-09-04T07:53:10.627Z,14.10
2022-09-04T07:55:49.557Z,12.80
2022-09-04T07:58:53.571Z,11.93
2022-09-04T08:01:47.116Z,12.77
2022-09-04T08:04:27.916Z,12.53
2022-09-04T08:07:11.416Z,13.03
2022-09-04T08:09:56.422Z,11.03
2022-09-04T08:12:38.173Z,10.83
2022-09-04T08:15:13.585Z,10.90
2022-09-04T08:17:59.151Z,10.43
2022-09-04T08:20:56.746Z,10.60
2022-09-04T08:24:01.275Z,10.03
2022-09-04T08:26:37.291Z,9.73
2022-09-04T08:29:31.442Z,10.37
2022-09-04T08:32:38.026Z,10.40
2022-09-04T08:35:22.000Z,9.13
2022-09-04T08:38:13.551Z,8.57
2022-09-04T08:40:46.510Z,12.97
2022-09-04T08:43:41.542Z,10.27
2022-09-04T08:46:49.375Z,9.70
2022-09-04T08:49:55.101Z,11.10
2022-09-04T08:52:27.596Z,10.40
2022-09-04T08:55:15.559Z,10.27
2022-09-04T08:58:05.533Z,11.30
2022-09-04T09:00:57.114Z,11.83
2022-09-04T09:03:35.169Z,12.30
2022-09-04T09:06:26.318Z,13.83
2022-09-04T09:09:07.047Z,13.07
2022-09-04T09:11:36.542Z,12.53
2022-09-04T09:14:34.532Z,12.80
2022-09-04T09:17:12.837Z,12.63
2022-09-04T09:19:39.679Z,10.77
2022-09-04T09:22:43.051Z,10.93
2022-09-04T09:25:20.587Z,13.60
2022-09-04T09:28:28.557Z,11.53
2022-09-04T09:31:10.098Z,12.60
2022-09-04T09:34:01.487Z,11.90
2022-09-04T09:37:02.247Z,12.60
2022-09-04T09:39:42.833Z,12.13
2022-09-04T09:42:35.380Z,13.43
2022-09-04T09:45:08.671Z,13.13
2022-09-04T09:47:50.371Z,13.97
2022-09-04T09:50:24.484Z,13.23
2022-09-04T09:53:22.470Z,12.97
2022-09-04T09:56:09.450Z,12.47
2022-09-04T09:58:48.029Z,13.00
2022-09-04T10:01:29.934Z,13.27
2022-09-04T10:04:12.436Z,13.10
2022-09-04T10:06:52.283Z,11.93
2022-09-04T10:09:29.231Z,11.77
2022-09-04T10:12:20.675Z,12.33
2022-09-04T10:14:55.929Z,12.13
2022-09-04T10:17:41.402Z,12.07
2022-09-04T10:20:22.868Z,12.43
2022-09-04T10:23:05.684Z,13.13
2022-09-04T10:26:18.577Z,13.53
2022-09-04T10:29:29.008Z,10.17
2022-09-04T10:32:06.089Z,11.70
2022-09-04T10:34:47.607Z,9.07
2022-09-04T10:37:53.049Z,9.40
2022-09-04T10:40:51.299Z,8.10
2022-09-04T10:43:29.481Z,7.63
2022-09-04T10:46:13.774Z,6.80
2022-09-04T10:49:20.046Z,6.27
2022-09-04T10:52:05.530Z,6.60
2022-09-04T10:54:54.250Z,5.70
2022-09-04T10:57:42.722Z,6.23
2022-09-04T11:00:14.965Z,5.33
2022-09-04T11:03:03.273Z,5.20
2022-09-04T11:06:03.228Z,6.73
2022-09-04T11:09:03.281Z,4.93
2022-09-04T11:11:40.577Z,4.73
2022-09-04T11:14:38.211Z,4.50
2022-09-04T11:17:30.616Z,4.30
2022-09-04T11:20:25.609Z,4.70
2022-09-04T11:23:30.937Z,5.57
2022-09-04T11:26:30.469Z,4.60
2022-09-04T11:29:19.850Z,3.73
2022-09-04T11:31:58.202Z,5.00
2022-09-04T11:34:48.212Z,3.13
2022-09-04T11:37:36.057Z,2.83
2022-09-04T11:40:32.181Z,2.90
2022-09-04T11:43:23.994Z,4.00
2022-09-04T11:46:08.786Z,2.70
2022-09-04T11:48:47.359Z,4.40
2022-09-04T11:51:34.354Z,4.60
2022-09-04T11:54:33.891Z,3.10
2022-09-04T11:57:25.334Z,5.63
2022-09-04T12:00:12.381Z,2.73
2022-09-04T12:02:41.607Z,3.43
2022-09-04T12:05:45.801Z,3.13
2022-09-04T12:08:15.266Z,4.80
2022-09-04T12:10:53.671Z,2.60
2022-09-04T12:13:31.491Z,3.03
2022-09-04T12:16:24.464Z,2.50
2022-09-04T12:19:13.514Z,2.20
2022-09-04T12:22:23.673Z,4.23
2022-09-04T12:25:07.924Z,3.77
2022-09-04T12:27:36.999Z,3.27
2022-09-04T12:30:12.468Z,4.70
2022-09-04T12:33:09.007Z,2.40
2022-09-04T12:35:52.479Z,2.70
2022-09-04T12:38:47.200Z,2.47
2022-09-04T12:41:19.938Z,2.07
2022-09-04T12:43:46.275Z,2.97
2022-09-04T12:46:35.628Z,2.43
2022-09-04T12:49:11.080Z,2.60
2022-09-04T12:51:56.466Z,2.20
2022-09-04T12:54:38.476Z,3.80
2022-09-04T12:57:30.342Z,2.23
2022-09-04T13:00:16.804Z,2.17
2022-09-04T13:03:05.440Z,3.40
2022-09-04T13:05:53.000Z,2.27
2022-09-04T13:08:46.756Z,3.40
2022-09-04T13:11:31.917Z,1.80
2022-09-04T13:14:30.294Z,2.83
2022-09-04T13:17:08.402Z,2.47
2022-09-04T13:19:46.853Z,2.00
2022-09-04T13:22:47.279Z,2.03
2022-09-04T13:25:28.842Z,2.10
2022-09-04T13:28:25.964Z,2.37
2022-09-04T13:31:06.796Z,2.23
2022-09-04T13:33:42.831Z,2.90
2022-09-04T13:36:38.749Z,2.17
2022-09-04T13:39:08.168Z,2.00
2022-09-04T13:42:23.203Z,2.57
2022-09-04T13:45:10.119Z,3.60
2022-09-04T13:47:44.083Z,1.70
2022-09-04T13:50:35.611Z,2.17
2022-09-04T13:53:24.878Z,1.40
2022-09-04T13:56:06.573Z,1.63
2022-09-04T13:58:38.745Z,1.60
2022-09-04T14:01:12.081Z,3.17
2022-09-04T14:03:45.975Z,1.67
2022-09-04T14:06:16.557Z,1.60
2022-09-04T14:08:45.712Z,2.10
2022-09-04T14:11:30.180Z,1.70
2022-09-04T14:14:30.751Z,2.90
2022-09-04T14:16:58.372Z,3.10
2022-09-04T14:19:43.384Z,1.80
2022-09-04T14:22:09.741Z,1.67
2022-09-04T14:25:00.654Z,2.17
2022-09-04T14:27:39.435Z,2.33
2022-09-04T14:30:14.626Z,1.60
2022-09-04T14:32:58.017Z,1.70
2022-09-04T14:35:27.841Z,1.50
2022-09-04T14:38:32.553Z,5.33
2022-09-04T14:41:25.035Z,2.80
2022-09-04T14:44:13.727Z,1.87
2022-09-04T14:46:55.691Z,2.30
2022-09-04T14:49:25.163Z,1.40
2022-09-04T14:51:56.420Z,1.50
2022-09-04T14:54:31.513Z,2.00
2022-09-04T14:57:21.091Z,1.80
2022-09-04T14:59:59.134Z,1.53
2022-09-04T15:02:35.506Z,3.80
2022-09-04T15:05:16.680Z,1.80
2022-09-04T15:07:43.019Z,2.30
2022-09-04T15:10:28.529Z,1.80
2022-09-04T15:13:36.487Z,1.70
2022-09-04T15:16:19.253Z,2.13
2022-09-04T15:19:05.767Z,1.43
2022-09-04T15:21:53.700Z,1.70
2022-09-04T15:25:03.650Z,1.30
2022-09-04T15:28:10.721Z,1.93
2022-09-04T15:30:45.524Z,1.73
2022-09-04T15:33:18.100Z,1.57
2022-09-04T15:35:54.132Z,1.47
2022-09-04T15:38:25.852Z,6.20
2022-09-04T15:41:15.780Z,1.43
2022-09-04T15:43:46.647Z,1.20
2022-09-04T15:46:51.555Z,3.83
2022-09-04T15:49:30.254Z,1.67
2022-09-04T15:52:25.853Z,1.73
2022-09-04T15:54:54.962Z,1.53
2022-09-04T15:57:47.202Z,1.70
2022-09-04T16:00:16.378Z,1.97
2022-09-04T16:03:06.828Z,2.23
2022-09-04T16:05:56.351Z,2.17
2022-09-04T16:08:35.121Z,1.90
2022-09-04T16:11:27.367Z,1.50
2022-09-04T16:14:02.583Z,1.90
2022-09-04T16:16:51.115Z,1.40
2022-09-04T16:19:38.452Z,1.60
2022-09-04T16:22:26.302Z,2.70
2022-09-04T16:25:24.208Z,2.03
2022-09-04T16:28:02.535Z,3.20
2022-09-04T16:30:41.600Z,1.47
2022-09-04T16:33:27.882Z,1.23
2022-09-04T16:36:04.083Z,1.70
2022-09-04T16:38:57.207Z,1.73
2022-09-04T16:41:38.387Z,2.80
2022-09-04T16:44:26.111Z,1.70
2022-09-04T16:47:09.087Z,1.57
2022-09-04T16:49:53.576Z,2.03
2022-09-04T16:52:31.821Z,3.87
2022-09-04T16:55:21.552Z,5.17
2022-09-04T16:58:07.137Z,1.87
2022-09-04T17:00:48.913Z,4.17
2022-09-04T17:03:22.788Z,1.63
2022-09-04T17:05:55.714Z,4.27
2022-09-04T17:08:40.268Z,5.40
2022-09-04T17:11:23.213Z,1.53
2022-09-04T17:14:08.567Z,1.40
2022-09-04T17:16:49.238Z,2.80
2022-09-04T17:19:15.858Z,1.90
2022-09-04T17:28:31.007Z,2.70
2022-09-04T17:29:04.018Z,2.40
2022-09-04T17:29:29.519Z,2.43
2022-09-04T17:31:49.199Z,1.80
2022-09-04T17:40:19.718Z,1.70
2022-09-04T17:40:54.446Z,1.77
2022-09-04T17:43:42.875Z,2.00
2022-09-04T17:46:12.658Z,1.70
2022-09-04T17:48:42.536Z,2.17
2022-09-04T17:51:17.906Z,1.60
2022-09-04T17:53:48.977Z,3.13
2022-09-04T17:56:28.691Z,2.13
2022-09-04T17:59:01.325Z,2.33
2022-09-04T18:01:39.517Z,2.60
2022-09-04T18:04:24.440Z,2.77
2022-09-04T18:06:57.203Z,1.70
2022-09-04T18:09:32.008Z,2.10
2022-09-04T18:12:49.418Z,3.00
2022-09-04T18:15:34.047Z,2.03
2022-09-04T18:18:13.010Z,2.43
2022-09-04T18:21:05.715Z,1.83
2022-09-04T18:23:55.335Z,1.53
2022-09-04T18:26:38.480Z,2.87
2022-09-04T18:29:26.402Z,2.03
2022-09-04T18:37:09.816Z,2.60
2022-09-04T18:37:16.158Z,1.50
2022-09-04T18:37:52.415Z,1.70
2022-09-04T18:40:43.116Z,2.10
2022-09-04T18:50:24.772Z,1.73
2022-09-04T18:50:29.499Z,1.60
2022-09-04T18:50:47.016Z,2.40
2022-09-04T18:52:00.430Z,2.60
2022-09-04T18:54:46.008Z,3.00
2022-09-04T18:57:27.399Z,2.43
2022-09-04T19:00:09.461Z,2.63
2022-09-04T19:03:23.661Z,1.80
2022-09-04T19:05:55.264Z,1.90
2022-09-04T19:08:39.521Z,3.73
2022-09-04T19:11:20.724Z,3.00
2022-09-04T19:14:10.773Z,2.30
2022-09-04T19:16:41.301Z,1.87
2022-09-04T19:19:17.277Z,3.17
2022-09-04T19:22:12.308Z,2.40
2022-09-04T19:24:51.684Z,2.07
2022-09-04T19:27:45.576Z,1.67
2022-09-04T19:30:19.856Z,2.30
2022-09-04T19:33:16.496Z,2.27
2022-09-04T19:35:50.035Z,1.63
2022-09-04T19:42:32.161Z,2.20
2022-09-04T19:46:00.637Z,4.17
2022-09-04T19:46:19.900Z,2.13
2022-09-04T19:47:42.543Z,4.70
2022-09-04T19:53:18.301Z,2.40
2022-09-04T19:53:37.910Z,1.90
2022-09-04T19:56:19.822Z,2.83
2022-09-04T19:59:03.667Z,1.97
2022-09-04T20:01:44.673Z,1.97
2022-09-04T20:04:24.178Z,2.13
2022-09-04T20:06:56.339Z,2.67
2022-09-04T20:09:46.360Z,2.90
2022-09-04T20:12:26.805Z,4.17
2022-09-04T20:15:14.848Z,2.00
2022-09-04T20:17:52.446Z,2.00
2022-09-04T20:20:25.016Z,3.17
2022-09-04T20:23:35.195Z,2.43
2022-09-04T20:26:19.653Z,2.47
2022-09-04T20:28:55.652Z,2.40
2022-09-04T20:31:35.521Z,2.00
2022-09-04T20:34:22.136Z,2.17
2022-09-04T20:36:55.475Z,2.83
2022-09-04T20:39:26.223Z,3.77
2022-09-04T20:42:09.904Z,2.77
2022-09-04T20:47:23.062Z,3.70
2022-09-04T20:52:51.448Z,3.23
2022-09-04T20:52:53.165Z,2.93
2022-09-04T20:54:02.724Z,2.40
2022-09-04T20:59:23.649Z,2.20
2022-09-04T21:03:21.875Z,3.30
2022-09-04T21:03:28.886Z,2.63
2022-09-04T21:06:22.574Z,2.20
2022-09-04T21:09:14.136Z,3.37
2022-09-04T21:11:47.432Z,3.20
2022-09-04T21:14:21.207Z,4.40
2022-09-04T21:17:01.981Z,2.30
2022-09-04T21:20:16.947Z,2.53
2022-09-04T21:23:22.150Z,4.80
2022-09-04T21:26:01.194Z,2.40
2022-09-04T21:29:13.569Z,3.30
2022-09-04T21:31:58.516Z,2.60
2022-09-04T21:34:59.823Z,2.50
2022-09-04T21:38:05.408Z,3.07
2022-09-04T21:41:00.000Z,2.80
2022-09-04T21:43:48.053Z,2.10
2022-09-04T21:46:17.475Z,2.83
2022-09-04T21:49:00.196Z,2.90
2022-09-04T21:52:12.154Z,2.30
2022-09-04T21:57:09.023Z,2.63
2022-09-04T22:02:26.722Z,3.83
2022-09-04T22:02:44.804Z,2.37
2022-09-04T22:04:08.778Z,2.53
2022-09-04T22:10:33.750Z,2.90
2022-09-04T22:13:35.128Z,3.63
2022-09-04T22:13:48.211Z,2.87
2022-09-04T22:16:29.093Z,2.77
2022-09-04T22:18:55.781Z,3.20
2022-09-04T22:22:10.381Z,3.53
2022-09-04T22:24:52.645Z,3.10
2022-09-04T22:27:31.693Z,5.20
2022-09-04T22:30:18.821Z,2.80
2022-09-04T22:33:24.704Z,2.67
2022-09-04T22:36:29.598Z,3.00
2022-09-04T22:39:14.867Z,3.03
2022-09-04T22:42:03.627Z,4.60
2022-09-04T22:44:42.549Z,3.37
2022-09-04T22:47:33.696Z,5.20
2022-09-04T22:50:18.693Z,3.20
2022-09-04T22:53:14.335Z,5.53
2022-09-04T22:56:19.188Z,4.23
2022-09-04T22:59:10.554Z,3.40
2022-09-04T23:02:01.305Z,3.43
2022-09-04T23:04:57.300Z,3.17
2022-09-04T23:13:42.401Z,3.30
2022-09-04T23:13:50.372Z,4.27
2022-09-04T23:14:07.641Z,6.43
2022-09-04T23:16:49.413Z,4.17
2022-09-04T23:24:52.148Z,4.57
2022-09-04T23:26:42.064Z,3.30
2022-09-04T23:26:44.300Z,3.43
2022-09-04T23:28:51.668Z,4.57
2022-09-04T23:32:06.796Z,4.53
2022-09-04T23:35:14.814Z,3.53
2022-09-04T23:38:06.626Z,3.30
2022-09-04T23:40:39.261Z,3.70
2022-09-04T23:43:23.790Z,3.37
2022-09-04T23:46:08.641Z,3.67
2022-09-04T23:49:06.737Z,3.03
2022-09-04T23:52:12.162Z,3.47
2022-09-04T23:54:51.578Z,4.83
2022-09-04T23:57:28.433Z,3.50
